Terminal Aerodrome Forecast
Issued by NWS Wichita, KS

Home | Current Version | Previous Version | Text Only | Print | Product List | Glossary On
Versions: 1 2 3 4 5 6 7 8 9 10 11 12 13 14 15 16 17 18 19 20
832
FTUS43 KICT 282334
TAFICT
TAF
KICT 282334Z 0100/0124 22009KT P6SM OVC200
     FM010130 35014G20KT P6SM OVC100
     FM010300 34022G30KT P6SM VCSH OVC080
      TEMPO 0103/0106 BKN025
     FM011200 32017G25KT P6SM SKC=

USA.gov is the U.S. government's official web portal to all federal, state and local government web resources and services.